createdAt,value
2022-10-06T00:01:03.685Z,1.10
2022-10-06T00:03:31.094Z,1.77
2022-10-06T00:06:02.795Z,0.90
2022-10-06T00:08:38.207Z,1.30
2022-10-06T00:11:06.557Z,1.73
2022-10-06T00:13:34.484Z,1.48
2022-10-06T00:16:02.596Z,1.20
2022-10-06T00:18:30.670Z,1.05
2022-10-06T00:21:01.045Z,1.38
2022-10-06T00:23:29.138Z,1.65
2022-10-06T00:25:56.978Z,1.55
2022-10-06T00:28:24.409Z,1.65
2022-10-06T00:30:53.599Z,1.30
2022-10-06T00:33:21.056Z,1.50
2022-10-06T00:35:56.772Z,1.17
2022-10-06T00:38:24.779Z,1.48
2022-10-06T00:40:52.267Z,1.48
2022-10-06T00:43:41.526Z,1.20
2022-10-06T00:46:13.699Z,1.30
2022-10-06T00:48:41.563Z,1.10
2022-10-06T00:51:08.915Z,1.55
2022-10-06T00:53:36.422Z,1.52
2022-10-06T00:56:03.724Z,1.00
2022-10-06T00:58:31.835Z,1.23
2022-10-06T01:00:59.730Z,1.70
2022-10-06T01:03:38.786Z,1.25
2022-10-06T01:06:06.574Z,1.80
2022-10-06T01:08:34.799Z,1.00
2022-10-06T01:11:02.209Z,1.17
2022-10-06T01:13:32.401Z,1.30
2022-10-06T01:16:26.818Z,1.35
2022-10-06T01:21:33.197Z,1.25
2022-10-06T01:24:03.492Z,1.08
2022-10-06T01:26:35.690Z,1.52
2022-10-06T01:29:03.460Z,1.10
2022-10-06T01:31:31.411Z,1.73
2022-10-06T01:33:59.613Z,1.40
2022-10-06T01:36:26.931Z,1.50
2022-10-06T01:38:54.364Z,1.20
2022-10-06T01:41:22.588Z,1.33
2022-10-06T01:43:50.126Z,1.02
2022-10-06T01:46:17.450Z,1.10
2022-10-06T01:48:44.761Z,0.90
2022-10-06T01:51:18.257Z,1.15
2022-10-06T01:53:45.521Z,0.98
2022-10-06T01:56:13.726Z,1.48
2022-10-06T01:58:41.833Z,1.88
2022-10-06T02:01:10.044Z,1.73
2022-10-06T02:03:39.024Z,1.67
2022-10-06T02:06:07.931Z,1.05
2022-10-06T02:08:35.814Z,0.85
2022-10-06T02:11:10.829Z,1.90
2022-10-06T02:13:41.642Z,1.60
2022-10-06T02:16:10.001Z,1.33
2022-10-06T02:18:37.523Z,1.30
2022-10-06T02:21:04.971Z,1.00
2022-10-06T02:23:33.022Z,1.95
2022-10-06T02:26:05.130Z,1.23
2022-10-06T02:28:33.618Z,1.15
2022-10-06T02:31:05.431Z,1.30
2022-10-06T02:33:33.786Z,1.10
2022-10-06T02:36:01.857Z,1.35
2022-10-06T02:38:30.166Z,1.10
2022-10-06T02:40:59.872Z,1.30
2022-10-06T02:43:31.673Z,1.25
2022-10-06T02:46:18.921Z,1.55
2022-10-06T02:48:51.305Z,1.50
2022-10-06T02:51:20.148Z,1.33
2022-10-06T02:53:48.997Z,0.80
2022-10-06T02:56:23.528Z,1.25
2022-10-06T02:58:52.680Z,0.85
2022-10-06T03:01:28.631Z,1.25
2022-10-06T03:03:59.191Z,1.02
2022-10-06T03:06:29.878Z,1.50
2022-10-06T03:09:05.284Z,0.98
2022-10-06T03:11:35.465Z,1.30
2022-10-06T03:14:04.561Z,1.10
2022-10-06T03:16:51.905Z,1.48
2022-10-06T03:19:26.212Z,1.42
2022-10-06T03:21:54.276Z,1.45
2022-10-06T03:24:25.861Z,1.17
2022-10-06T03:26:58.397Z,1.10
2022-10-06T03:29:26.888Z,1.65
2022-10-06T03:31:57.277Z,1.55
2022-10-06T03:34:24.945Z,1.20
2022-10-06T03:36:52.834Z,1.67
2022-10-06T03:39:22.571Z,1.42
2022-10-06T03:41:51.009Z,1.25
2022-10-06T03:44:18.674Z,1.05
2022-10-06T03:46:46.018Z,1.13
2022-10-06T03:49:13.426Z,1.42
2022-10-06T03:51:43.322Z,0.90
2022-10-06T03:54:16.023Z,1.00
2022-10-06T03:56:46.595Z,1.17
2022-10-06T03:59:17.429Z,1.02
2022-10-06T04:01:47.946Z,1.45
2022-10-06T04:04:20.300Z,1.30
2022-10-06T04:06:51.491Z,1.10
2022-10-06T04:09:20.742Z,1.60
2022-10-06T04:11:48.221Z,1.73
2022-10-06T04:14:16.773Z,1.50
2022-10-06T04:16:50.440Z,1.10
2022-10-06T04:19:38.000Z,1.00
2022-10-06T04:22:06.099Z,1.85
2022-10-06T04:24:34.729Z,1.30
2022-10-06T04:27:21.544Z,1.30
2022-10-06T04:29:57.905Z,1.27
2022-10-06T04:32:25.613Z,1.38
2022-10-06T04:34:53.035Z,0.95
2022-10-06T04:37:20.965Z,1.27
2022-10-06T04:39:49.471Z,1.40
2022-10-06T04:42:17.796Z,1.35
2022-10-06T04:44:45.202Z,0.90
2022-10-06T04:47:12.613Z,1.27
2022-10-06T04:49:40.093Z,1.30
2022-10-06T04:52:08.244Z,1.20
2022-10-06T04:54:37.736Z,1.05
2022-10-06T04:57:06.462Z,1.30
2022-10-06T04:59:52.301Z,1.33
2022-10-06T05:02:20.820Z,1.35
2022-10-06T05:04:52.138Z,1.45
2022-10-06T05:07:21.375Z,1.38
2022-10-06T05:09:48.792Z,1.25
2022-10-06T05:12:16.158Z,1.10
2022-10-06T05:14:44.564Z,1.55
2022-10-06T05:17:12.091Z,1.25
2022-10-06T05:19:40.277Z,1.00
2022-10-06T05:22:09.532Z,1.33
2022-10-06T05:24:37.120Z,1.42
2022-10-06T05:27:06.492Z,1.42
2022-10-06T05:29:34.976Z,1.20
2022-10-06T05:32:05.050Z,1.20
2022-10-06T05:34:33.629Z,1.10
2022-10-06T05:37:01.493Z,0.90
2022-10-06T05:39:28.940Z,1.50
2022-10-06T05:41:58.808Z,1.42
2022-10-06T05:44:27.040Z,1.33
2022-10-06T05:46:56.021Z,1.20
2022-10-06T05:49:24.047Z,1.67
2022-10-06T05:51:56.235Z,1.05
2022-10-06T05:54:34.839Z,1.33
2022-10-06T05:57:02.473Z,1.90
2022-10-06T05:59:32.297Z,1.70
2022-10-06T06:02:00.810Z,1.23
2022-10-06T06:04:34.200Z,1.27
2022-10-06T06:07:01.875Z,1.70
2022-10-06T06:09:29.273Z,2.10
2022-10-06T06:12:00.098Z,1.30
2022-10-06T06:15:06.251Z,1.35
2022-10-06T06:17:39.210Z,1.75
2022-10-06T06:20:07.654Z,2.47
2022-10-06T06:22:35.875Z,1.50
2022-10-06T06:25:04.304Z,1.40
2022-10-06T06:27:31.682Z,1.95
2022-10-06T06:29:59.127Z,1.52
2022-10-06T06:32:27.998Z,1.50
2022-10-06T06:34:55.706Z,1.63
2022-10-06T06:37:23.062Z,1.55
2022-10-06T06:39:50.380Z,1.75
2022-10-06T06:42:18.790Z,1.35
2022-10-06T06:44:49.012Z,2.08
2022-10-06T06:47:39.787Z,1.67
2022-10-06T06:50:10.385Z,1.45
2022-10-06T06:52:39.455Z,2.03
2022-10-06T06:55:09.761Z,1.98
2022-10-06T06:57:37.241Z,1.23
2022-10-06T07:00:08.004Z,1.70
2022-10-06T07:02:36.846Z,1.13
2022-10-06T07:05:05.041Z,1.40
2022-10-06T07:07:32.577Z,1.20
2022-10-06T07:10:00.780Z,1.38
2022-10-06T07:12:29.734Z,1.80
2022-10-06T07:15:17.082Z,1.75
2022-10-06T07:18:07.108Z,1.15
2022-10-06T07:20:54.073Z,2.03
2022-10-06T07:23:40.110Z,1.65
2022-10-06T07:26:12.239Z,2.05
2022-10-06T07:28:42.340Z,1.48
2022-10-06T07:31:10.444Z,1.85
2022-10-06T07:33:39.084Z,1.85
2022-10-06T07:36:06.562Z,1.65
2022-10-06T07:38:34.670Z,1.67
2022-10-06T07:43:55.997Z,2.13
2022-10-06T07:46:25.120Z,1.38
2022-10-06T07:49:17.498Z,1.60
2022-10-06T07:51:45.911Z,1.95
2022-10-06T07:54:13.403Z,1.40
2022-10-06T07:56:54.020Z,1.63
2022-10-06T07:59:21.835Z,1.25
2022-10-06T08:01:51.253Z,1.52
2022-10-06T08:04:18.610Z,1.50
2022-10-06T08:06:47.649Z,1.88
2022-10-06T08:09:15.021Z,1.45
2022-10-06T08:11:44.760Z,1.67
2022-10-06T08:14:14.983Z,1.30
2022-10-06T08:16:42.407Z,1.42
2022-10-06T08:19:11.559Z,1.73
2022-10-06T08:21:39.606Z,1.63
2022-10-06T08:24:07.245Z,1.67
2022-10-06T08:26:34.699Z,1.25
2022-10-06T08:29:04.783Z,1.63
2022-10-06T08:31:32.638Z,1.70
2022-10-06T08:34:01.337Z,2.05
2022-10-06T08:36:31.868Z,1.42
2022-10-06T08:39:00.249Z,2.03
2022-10-06T08:41:40.127Z,1.30
2022-10-06T08:44:18.463Z,1.70
2022-10-06T08:47:13.872Z,1.65
2022-10-06T08:49:44.575Z,2.10
2022-10-06T08:52:49.678Z,1.30
2022-10-06T08:55:29.045Z,1.55
2022-10-06T08:58:29.099Z,2.03
2022-10-06T09:01:23.423Z,1.42
2022-10-06T09:03:56.341Z,1.40
2022-10-06T09:06:32.186Z,1.63
2022-10-06T09:09:13.234Z,1.17
2022-10-06T09:11:43.587Z,1.67
2022-10-06T09:14:28.662Z,1.40
2022-10-06T09:17:02.698Z,1.20
2022-10-06T09:19:38.002Z,1.25
2022-10-06T09:22:12.149Z,1.50
2022-10-06T09:24:47.477Z,2.05
2022-10-06T09:27:34.932Z,1.35
2022-10-06T09:30:04.603Z,1.02
2022-10-06T09:32:34.657Z,1.50
2022-10-06T09:35:12.789Z,1.20
2022-10-06T09:38:00.664Z,1.15
2022-10-06T09:40:36.452Z,1.35
2022-10-06T09:43:25.730Z,1.60
2022-10-06T09:45:55.442Z,1.25
2022-10-06T09:48:25.779Z,2.38
2022-10-06T09:51:14.026Z,1.15
2022-10-06T09:54:14.234Z,1.40
2022-10-06T09:56:47.337Z,1.30
2022-10-06T09:59:23.759Z,0.98
2022-10-06T10:01:55.705Z,1.27
2022-10-06T10:04:30.329Z,1.10
2022-10-06T10:07:36.461Z,1.23
2022-10-06T10:10:25.393Z,1.00
2022-10-06T10:12:58.004Z,1.35
2022-10-06T10:15:39.244Z,1.00
2022-10-06T10:18:13.668Z,1.08
2022-10-06T10:23:30.893Z,1.50
2022-10-06T10:26:27.895Z,0.98
2022-10-06T10:29:15.153Z,0.75
2022-10-06T10:31:42.521Z,1.75
2022-10-06T10:34:24.989Z,1.30
2022-10-06T10:37:12.499Z,1.02
2022-10-06T10:39:52.654Z,1.00
2022-10-06T10:42:54.826Z,1.20
2022-10-06T10:45:32.353Z,0.80
2022-10-06T10:48:01.493Z,1.05
2022-10-06T10:50:50.907Z,1.58
2022-10-06T10:53:49.808Z,1.10
2022-10-06T10:56:21.101Z,0.85
2022-10-06T10:58:53.130Z,1.10
2022-10-06T11:01:44.168Z,0.82
2022-10-06T11:04:13.437Z,0.88
2022-10-06T11:07:31.368Z,1.20
2022-10-06T11:10:10.544Z,1.10
2022-10-06T11:12:52.872Z,1.00
2022-10-06T11:16:00.616Z,0.93
2022-10-06T11:18:33.638Z,0.93
2022-10-06T11:21:27.783Z,1.27
2022-10-06T11:24:21.386Z,0.65
2022-10-06T11:27:03.747Z,1.30
2022-10-06T11:29:52.752Z,1.30
2022-10-06T11:33:01.414Z,1.00
2022-10-06T11:35:37.754Z,0.70
2022-10-06T11:38:08.309Z,1.20
2022-10-06T11:40:54.208Z,1.20
2022-10-06T11:43:39.683Z,1.08
2022-10-06T11:46:12.774Z,1.30
2022-10-06T11:48:40.603Z,1.52
2022-10-06T11:51:21.474Z,1.33
2022-10-06T11:53:48.897Z,0.80
2022-10-06T11:56:19.383Z,1.00
2022-10-06T11:58:55.646Z,1.00
2022-10-06T12:01:35.042Z,1.00
2022-10-06T12:04:08.329Z,1.27
2022-10-06T12:06:47.546Z,1.15
2022-10-06T12:09:32.765Z,1.23
2022-10-06T12:12:07.064Z,1.02
2022-10-06T12:16:32.286Z,1.00
2022-10-06T12:18:00.764Z,1.10
2022-10-06T12:20:53.410Z,1.10
2022-10-06T12:23:38.315Z,1.15
2022-10-06T12:26:20.531Z,0.90
2022-10-06T12:28:56.390Z,1.42
2022-10-06T12:31:44.903Z,0.70
2022-10-06T12:34:40.023Z,0.90
2022-10-06T12:37:29.057Z,1.05
2022-10-06T12:40:33.880Z,0.95
2022-10-06T12:43:19.388Z,0.85
2022-10-06T12:45:56.110Z,1.08
2022-10-06T12:48:31.318Z,1.10
2022-10-06T12:51:05.926Z,0.63
2022-10-06T12:53:52.402Z,1.30
2022-10-06T12:56:31.705Z,1.00
2022-10-06T12:59:19.756Z,0.90
2022-10-06T13:01:52.393Z,1.08
2022-10-06T13:04:40.490Z,1.13
2022-10-06T13:07:23.621Z,0.98
2022-10-06T13:10:15.532Z,1.15
2022-10-06T13:12:50.179Z,0.80
2022-10-06T13:15:22.373Z,0.85
2022-10-06T13:18:10.398Z,1.10
2022-10-06T13:20:41.836Z,1.13
2022-10-06T13:23:11.825Z,0.98
2022-10-06T13:25:57.711Z,0.90
2022-10-06T13:28:29.361Z,1.27
2022-10-06T13:31:21.158Z,1.08
2022-10-06T13:34:07.257Z,1.10
2022-10-06T13:36:38.651Z,1.00
2022-10-06T13:39:11.910Z,0.70
2022-10-06T13:42:10.896Z,0.70
2022-10-06T13:44:56.258Z,0.80
2022-10-06T13:47:25.579Z,0.60
2022-10-06T13:50:03.742Z,0.60
2022-10-06T13:52:36.511Z,1.00
2022-10-06T13:55:24.350Z,0.43
2022-10-06T13:58:08.556Z,0.82
2022-10-06T14:00:58.055Z,0.77
2022-10-06T14:03:33.794Z,0.68
2022-10-06T14:06:22.130Z,0.85
2022-10-06T14:08:54.204Z,0.80
2022-10-06T14:11:28.073Z,0.73
2022-10-06T14:14:02.065Z,0.63
2022-10-06T14:16:30.147Z,1.02
2022-10-06T14:19:02.931Z,0.77
2022-10-06T14:21:34.076Z,1.00
2022-10-06T14:24:07.755Z,0.95
2022-10-06T14:26:37.643Z,1.20
2022-10-06T14:29:04.953Z,1.02
2022-10-06T14:31:34.029Z,0.93
2022-10-06T14:34:02.622Z,1.08
2022-10-06T14:36:35.439Z,0.80
2022-10-06T14:39:04.842Z,0.82
2022-10-06T14:41:32.596Z,0.80
2022-10-06T14:44:02.881Z,1.02
2022-10-06T14:46:30.293Z,1.08
2022-10-06T14:48:58.447Z,1.02
2022-10-06T14:51:29.301Z,0.65
2022-10-06T14:53:59.495Z,1.00
2022-10-06T14:56:29.298Z,2.10
2022-10-06T14:58:57.108Z,1.20
2022-10-06T15:01:26.665Z,1.13
2022-10-06T15:03:59.738Z,0.90
2022-10-06T15:06:46.299Z,0.75
2022-10-06T15:09:13.712Z,1.10
2022-10-06T15:11:41.675Z,0.90
2022-10-06T15:14:09.891Z,0.88
2022-10-06T15:16:40.636Z,0.47
2022-10-06T15:19:09.096Z,1.52
2022-10-06T15:21:39.062Z,0.90
2022-10-06T15:24:08.150Z,1.17
2022-10-06T15:26:54.049Z,1.20
2022-10-06T15:29:21.459Z,1.73
2022-10-06T15:31:54.703Z,0.80
2022-10-06T15:34:26.297Z,0.80
2022-10-06T15:36:55.158Z,0.85
2022-10-06T15:39:40.743Z,0.82
2022-10-06T15:42:08.718Z,1.02
2022-10-06T15:44:36.399Z,1.10
2022-10-06T15:47:05.637Z,1.08
2022-10-06T15:49:37.659Z,1.00
2022-10-06T15:52:05.545Z,0.90
2022-10-06T15:54:37.364Z,1.05
2022-10-06T15:57:08.488Z,1.27
2022-10-06T15:59:37.050Z,1.02
2022-10-06T16:02:07.786Z,1.52
2022-10-06T16:04:40.464Z,1.30
2022-10-06T16:07:14.265Z,1.15
2022-10-06T16:09:44.373Z,1.40
2022-10-06T16:12:16.345Z,1.30
2022-10-06T16:14:44.274Z,1.20
2022-10-06T16:17:12.817Z,1.42
2022-10-06T16:19:40.497Z,1.33
2022-10-06T16:22:12.981Z,1.60
2022-10-06T16:24:40.637Z,1.20
2022-10-06T16:27:12.824Z,1.10
2022-10-06T16:29:40.184Z,1.35
2022-10-06T16:32:07.714Z,1.40
2022-10-06T16:34:35.079Z,1.92
2022-10-06T16:37:02.388Z,1.45
2022-10-06T16:39:29.711Z,1.70
2022-10-06T16:41:56.996Z,1.10
2022-10-06T16:44:24.365Z,1.33
2022-10-06T16:46:51.762Z,1.38
2022-10-06T16:49:19.676Z,1.27
2022-10-06T16:51:47.042Z,1.00
2022-10-06T16:54:17.295Z,1.58
2022-10-06T16:56:47.061Z,1.45
2022-10-06T16:59:19.710Z,1.60
2022-10-06T17:01:48.702Z,1.33
2022-10-06T17:04:17.716Z,1.25
2022-10-06T17:06:46.757Z,1.00
2022-10-06T17:09:16.463Z,1.10
2022-10-06T17:11:49.412Z,1.40
2022-10-06T17:14:17.814Z,1.38
2022-10-06T17:16:46.833Z,1.33
2022-10-06T17:19:16.487Z,1.48
2022-10-06T17:21:46.691Z,1.05
2022-10-06T17:24:17.943Z,1.30
2022-10-06T17:26:47.797Z,1.20
2022-10-06T17:29:21.367Z,1.38
2022-10-06T17:31:53.303Z,1.77
2022-10-06T17:34:22.937Z,1.42
2022-10-06T17:36:52.415Z,1.55
2022-10-06T17:39:24.440Z,1.20
2022-10-06T17:41:53.857Z,1.33
2022-10-06T17:44:24.195Z,1.40
2022-10-06T17:46:55.361Z,1.70
2022-10-06T17:49:24.506Z,1.27
2022-10-06T17:51:53.829Z,1.80
2022-10-06T17:54:23.555Z,1.60
2022-10-06T17:56:53.485Z,1.75
2022-10-06T17:59:23.566Z,1.90
2022-10-06T18:01:52.054Z,1.67
2022-10-06T18:04:19.951Z,1.88
2022-10-06T18:06:48.084Z,1.52
2022-10-06T18:09:16.161Z,1.58
2022-10-06T18:12:04.011Z,1.60
2022-10-06T18:14:34.979Z,1.40
2022-10-06T18:17:03.731Z,1.60
2022-10-06T18:19:33.782Z,1.85
2022-10-06T18:22:10.019Z,1.63
2022-10-06T18:24:38.832Z,1.58
2022-10-06T18:27:07.839Z,2.10
2022-10-06T18:29:37.035Z,1.65
2022-10-06T18:32:40.546Z,1.30
2022-10-06T18:37:40.574Z,1.73
2022-10-06T18:40:09.958Z,1.75
2022-10-06T18:42:39.064Z,1.35
2022-10-06T18:45:26.552Z,1.77
2022-10-06T18:48:12.458Z,1.77
2022-10-06T18:50:40.169Z,1.70
2022-10-06T18:53:07.515Z,1.70
2022-10-06T18:55:35.103Z,1.85
2022-10-06T18:58:04.594Z,1.73
2022-10-06T19:00:32.078Z,1.92
2022-10-06T19:02:59.423Z,1.20
2022-10-06T19:05:26.922Z,1.60
2022-10-06T19:07:54.384Z,1.38
2022-10-06T19:10:22.088Z,1.50
2022-10-06T19:12:49.763Z,1.90
2022-10-06T19:15:20.761Z,1.92
2022-10-06T19:17:49.943Z,1.65
2022-10-06T19:20:18.389Z,1.67
2022-10-06T19:22:47.476Z,1.60
2022-10-06T19:25:18.718Z,1.42
2022-10-06T19:27:46.519Z,1.95
2022-10-06T19:30:14.502Z,1.80
2022-10-06T19:32:41.970Z,1.70
2022-10-06T19:35:10.581Z,1.60
2022-10-06T19:37:38.834Z,1.70
2022-10-06T19:40:08.577Z,1.45
2022-10-06T19:42:47.826Z,1.30
2022-10-06T19:45:16.555Z,1.48
2022-10-06T19:47:45.319Z,1.40
2022-10-06T19:50:13.470Z,1.50
2022-10-06T19:52:42.103Z,2.28
2022-10-06T19:55:09.616Z,1.90
2022-10-06T19:57:37.145Z,2.33
2022-10-06T20:00:06.664Z,1.80
2022-10-06T20:02:42.867Z,1.50
2022-10-06T20:05:15.853Z,1.88
2022-10-06T20:07:45.574Z,1.67
2022-10-06T20:10:13.644Z,1.63
2022-10-06T20:12:41.727Z,1.90
2022-10-06T20:15:10.152Z,1.90
2022-10-06T20:17:37.811Z,1.98
2022-10-06T20:20:05.730Z,1.70
2022-10-06T20:22:33.147Z,1.45
2022-10-06T20:25:01.983Z,1.50
2022-10-06T20:27:29.448Z,1.50
2022-10-06T20:29:58.001Z,1.70
2022-10-06T20:32:25.321Z,2.00
2022-10-06T20:34:52.758Z,2.42
2022-10-06T20:37:20.118Z,2.28
2022-10-06T20:40:05.747Z,2.25
2022-10-06T20:42:33.635Z,2.05
2022-10-06T20:45:01.049Z,1.90
2022-10-06T20:47:29.796Z,2.15
2022-10-06T20:49:57.079Z,1.77
2022-10-06T20:52:24.570Z,1.88
2022-10-06T20:54:52.002Z,1.90
2022-10-06T20:57:19.624Z,1.88
2022-10-06T20:59:46.943Z,1.92
2022-10-06T21:02:14.298Z,2.10
2022-10-06T21:04:45.085Z,2.00
2022-10-06T21:07:12.438Z,2.03
2022-10-06T21:09:39.824Z,1.55
2022-10-06T21:12:07.267Z,2.10
2022-10-06T21:14:36.170Z,2.00
2022-10-06T21:17:03.616Z,2.15
2022-10-06T21:19:31.458Z,1.73
2022-10-06T21:21:59.334Z,2.30
2022-10-06T21:24:26.702Z,2.22
2022-10-06T21:26:54.163Z,2.72
2022-10-06T21:29:21.687Z,2.53
2022-10-06T21:31:49.055Z,2.17
2022-10-06T21:34:16.387Z,2.83
2022-10-06T21:36:44.172Z,2.55
2022-10-06T21:39:12.927Z,2.53
2022-10-06T21:41:40.690Z,2.47
2022-10-06T21:44:16.351Z,2.17
2022-10-06T21:46:54.584Z,2.63
2022-10-06T21:49:23.920Z,3.28
2022-10-06T21:51:53.719Z,2.85
2022-10-06T21:54:22.422Z,2.53
2022-10-06T21:56:50.482Z,2.28
2022-10-06T21:59:18.140Z,2.58
2022-10-06T22:01:46.631Z,2.60
2022-10-06T22:04:15.275Z,2.40
2022-10-06T22:06:44.262Z,2.88
2022-10-06T22:09:17.272Z,2.67
2022-10-06T22:11:45.211Z,2.75
2022-10-06T22:14:15.751Z,2.33
2022-10-06T22:16:43.493Z,2.60
2022-10-06T22:19:12.991Z,2.75
2022-10-06T22:21:46.230Z,2.83
2022-10-06T22:24:16.804Z,3.00
2022-10-06T22:26:44.397Z,2.67
2022-10-06T22:29:14.227Z,3.08
2022-10-06T22:31:44.635Z,3.00
2022-10-06T22:34:13.853Z,3.00
2022-10-06T22:36:41.547Z,2.38
2022-10-06T22:39:09.082Z,3.20
2022-10-06T22:41:37.210Z,2.90
2022-10-06T22:44:04.718Z,2.75
2022-10-06T22:46:35.485Z,3.35
2022-10-06T22:49:03.432Z,2.95
2022-10-06T22:51:30.894Z,2.90
2022-10-06T22:53:59.878Z,3.03
2022-10-06T22:56:29.474Z,2.45
2022-10-06T22:58:59.585Z,2.67
2022-10-06T23:01:28.728Z,2.25
2022-10-06T23:03:56.575Z,3.00
2022-10-06T23:06:24.554Z,2.47
2022-10-06T23:08:52.395Z,2.50
2022-10-06T23:11:21.532Z,2.60
2022-10-06T23:13:50.287Z,2.70
2022-10-06T23:16:19.050Z,2.75
2022-10-06T23:18:47.345Z,2.45
2022-10-06T23:21:24.104Z,2.33
2022-10-06T23:23:54.221Z,2.42
2022-10-06T23:26:22.992Z,2.55
2022-10-06T23:28:52.753Z,2.80
2022-10-06T23:31:20.184Z,2.78
2022-10-06T23:33:48.160Z,2.50
2022-10-06T23:36:15.507Z,3.17
2022-10-06T23:38:42.820Z,2.42
2022-10-06T23:41:10.944Z,2.42
2022-10-06T23:43:38.235Z,2.13
2022-10-06T23:46:06.016Z,2.53
2022-10-06T23:48:33.478Z,2.10
2022-10-06T23:51:10.339Z,2.58
2022-10-06T23:53:38.166Z,2.22
2022-10-06T23:56:06.543Z,2.22
2022-10-06T23:58:34.147Z,2.65
